sensor_id;sensor_type;location;lat;lon;timestamp;pressure;altitude;pressure_sealevel;temperature;humidity
59859;BME280;45734;53.648;9.566;2024-02-21T00:01:24;52701.78;;;-145.06;100.00
59859;BME280;45734;53.648;9.566;2024-02-21T00:06:25;52689.63;;;-145.06;100.00
59859;BME280;45734;53.648;9.566;2024-02-21T00:11:26;52703.78;;;-145.06;100.00
59859;BME280;45734;53.648;9.566;2024-02-21T00:16:26;52699.75;;;-145.06;100.00
59859;BME280;45734;53.648;9.566;2024-02-21T00:21:26;52681.53;;;-145.06;100.00
59859;BME280;45734;53.648;9.566;2024-02-21T00:26:27;52689.63;;;-145.06;100.00
59859;BME280;45734;53.648;9.566;2024-02-21T00:31:27;52705.81;;;-145.06;100.00
59859;BME280;45734;53.648;9.566;2024-02-21T00:36:27;52667.34;;;-145.06;100.00
59859;BME280;45734;53.648;9.566;2024-02-21T00:41:27;52697.72;;;-145.06;100.00
59859;BME280;45734;53.648;9.566;2024-02-21T00:46:28;52661.28;;;-145.06;100.00
59859;BME280;45734;53.648;9.566;2024-02-21T00:51:28;52669.38;;;-145.06;100.00
59859;BME280;45734;53.648;9.566;2024-02-21T00:56:28;52673.44;;;-145.06;100.00
59859;BME280;45734;53.648;9.566;2024-02-21T01:01:29;52701.78;;;-145.06;100.00
59859;BME280;45734;53.648;9.566;2024-02-21T01:06:30;52665.34;;;-145.06;100.00
59859;BME280;45734;53.648;9.566;2024-02-21T01:11:30;52637.00;;;-145.06;100.00
59859;BME280;45734;53.648;9.566;2024-02-21T01:16:30;52620.78;;;-145.06;100.00
59859;BME280;45734;53.648;9.566;2024-02-21T01:21:31;52634.97;;;-145.06;100.00
59859;BME280;45734;53.648;9.566;2024-02-21T01:26:31;52632.94;;;-145.06;100.00
59859;BME280;45734;53.648;9.566;2024-02-21T01:31:31;52580.31;;;-145.06;100.00
59859;BME280;45734;53.648;9.566;2024-02-21T01:36:32;52580.31;;;-145.06;100.00
59859;BME280;45734;53.648;9.566;2024-02-21T01:41:32;52551.97;;;-145.06;100.00
59859;BME280;45734;53.648;9.566;2024-02-21T01:46:33;52470.97;;;-145.06;100.00
59859;BME280;45734;53.648;9.566;2024-02-21T01:51:35;52515.53;;;-145.06;100.00
59859;BME280;45734;53.648;9.566;2024-02-21T01:56:35;52519.56;;;-145.06;100.00
59859;BME280;45734;53.648;9.566;2024-02-21T02:01:35;52483.13;;;-145.06;100.00
59859;BME280;45734;53.648;9.566;2024-02-21T02:06:36;52507.41;;;-145.06;100.00
59859;BME280;45734;53.648;9.566;2024-02-21T02:11:36;52485.16;;;-145.06;100.00
59859;BME280;45734;53.648;9.566;2024-02-21T02:16:37;52521.59;;;-145.06;100.00
59859;BME280;45734;53.648;9.566;2024-02-21T02:21:39;52505.41;;;-145.06;100.00
59859;BME280;45734;53.648;9.566;2024-02-21T02:26:42;52511.47;;;-145.06;100.00
59859;BME280;45734;53.648;9.566;2024-02-21T02:31:42;52519.56;;;-145.06;100.00
59859;BME280;45734;53.648;9.566;2024-02-21T02:36:43;52553.97;;;-145.06;100.00
59859;BME280;45734;53.648;9.566;2024-02-21T02:41:43;52568.16;;;-145.06;100.00
59859;BME280;45734;53.648;9.566;2024-02-21T02:46:43;52558.03;;;-145.06;100.00
59859;BME280;45734;53.648;9.566;2024-02-21T02:51:44;52558.03;;;-145.06;100.00
59859;BME280;45734;53.648;9.566;2024-02-21T02:56:44;52558.03;;;-145.06;100.00
59859;BME280;45734;53.648;9.566;2024-02-21T03:01:44;52576.25;;;-145.06;100.00
59859;BME280;45734;53.648;9.566;2024-02-21T03:06:44;52558.03;;;-145.06;100.00
59859;BME280;45734;53.648;9.566;2024-02-21T03:11:45;52596.50;;;-145.06;100.00
59859;BME280;45734;53.648;9.566;2024-02-21T03:16:45;52604.59;;;-145.06;100.00
59859;BME280;45734;53.648;9.566;2024-02-21T03:21:45;52578.28;;;-145.06;100.00
59859;BME280;45734;53.648;9.566;2024-02-21T03:26:46;52596.50;;;-145.06;100.00
59859;BME280;45734;53.648;9.566;2024-02-21T03:31:48;52556.00;;;-145.06;100.00
59859;BME280;45734;53.648;9.566;2024-02-21T03:36:48;52553.97;;;-145.06;100.00
59859;BME280;45734;53.648;9.566;2024-02-21T03:41:48;52574.22;;;-145.06;100.00
59859;BME280;45734;53.648;9.566;2024-02-21T03:46:48;52562.09;;;-145.06;100.00
59859;BME280;45734;53.648;9.566;2024-02-21T03:51:49;52568.16;;;-145.06;100.00
59859;BME280;45734;53.648;9.566;2024-02-21T03:56:49;52551.97;;;-145.06;100.00
59859;BME280;45734;53.648;9.566;2024-02-21T04:01:52;52566.13;;;-145.06;100.00
59859;BME280;45734;53.648;9.566;2024-02-21T04:06:53;52547.91;;;-145.06;100.00
59859;BME280;45734;53.648;9.566;2024-02-21T04:11:53;52574.22;;;-145.06;100.00
59859;BME280;45734;53.648;9.566;2024-02-21T04:16:53;52568.16;;;-145.06;100.00
59859;BME280;45734;53.648;9.566;2024-02-21T04:21:54;52596.50;;;-145.06;100.00
59859;BME280;45734;53.648;9.566;2024-02-21T04:26:54;52551.97;;;-145.06;100.00
59859;BME280;45734;53.648;9.566;2024-02-21T04:31:54;52562.09;;;-145.06;100.00
59859;BME280;45734;53.648;9.566;2024-02-21T04:36:55;52547.91;;;-145.06;100.00
59859;BME280;45734;53.648;9.566;2024-02-21T04:41:55;52527.66;;;-145.06;100.00
59859;BME280;45734;53.648;9.566;2024-02-21T04:46:55;52560.06;;;-145.06;100.00
59859;BME280;45734;53.648;9.566;2024-02-21T04:51:55;52551.97;;;-145.06;100.00
59859;BME280;45734;53.648;9.566;2024-02-21T04:56:56;52543.84;;;-145.06;100.00
59859;BME280;45734;53.648;9.566;2024-02-21T05:01:56;52515.53;;;-145.06;100.00
59859;BME280;45734;53.648;9.566;2024-02-21T05:06:56;52517.53;;;-145.06;100.00
59859;BME280;45734;53.648;9.566;2024-02-21T05:11:56;52519.56;;;-145.06;100.00
59859;BME280;45734;53.648;9.566;2024-02-21T05:16:59;52543.84;;;-145.06;100.00
59859;BME280;45734;53.648;9.566;2024-02-21T05:21:59;52580.31;;;-145.06;100.00
59859;BME280;45734;53.648;9.566;2024-02-21T05:26:59;52594.47;;;-145.06;100.00
59859;BME280;45734;53.648;9.566;2024-02-21T05:32:00;52574.22;;;-145.06;100.00
59859;BME280;45734;53.648;9.566;2024-02-21T05:37:00;52632.94;;;-145.06;100.00
59859;BME280;45734;53.648;9.566;2024-02-21T05:42:01;52634.97;;;-145.06;100.00
59859;BME280;45734;53.648;9.566;2024-02-21T05:47:01;52659.25;;;-145.06;100.00
59859;BME280;45734;53.648;9.566;2024-02-21T05:52:01;52673.44;;;-145.06;100.00
59859;BME280;45734;53.648;9.566;2024-02-21T05:57:01;52699.75;;;-145.06;100.00
59859;BME280;45734;53.648;9.566;2024-02-21T06:02:02;52730.13;;;-145.06;100.00
59859;BME280;45734;53.648;9.566;2024-02-21T06:07:04;52730.13;;;-145.06;100.00
59859;BME280;45734;53.648;9.566;2024-02-21T06:12:04;52750.38;;;-145.06;100.00
59859;BME280;45734;53.648;9.566;2024-02-21T06:17:04;52772.63;;;-145.06;100.00
59859;BME280;45734;53.648;9.566;2024-02-21T06:22:05;52766.56;;;-145.06;100.00
59859;BME280;45734;53.648;9.566;2024-02-21T06:27:08;52815.16;;;-145.06;100.00
59859;BME280;45734;53.648;9.566;2024-02-21T06:32:08;52798.94;;;-145.06;100.00
59859;BME280;45734;53.648;9.566;2024-02-21T06:37:08;52831.34;;;-145.06;100.00
59859;BME280;45734;53.648;9.566;2024-02-21T06:42:09;52835.41;;;-145.06;100.00
59859;BME280;45734;53.648;9.566;2024-02-21T06:47:09;52849.56;;;-145.06;100.00
59859;BME280;45734;53.648;9.566;2024-02-21T06:52:09;52871.84;;;-145.06;100.00
59859;BME280;45734;53.648;9.566;2024-02-21T06:57:10;52859.69;;;-145.06;100.00
59859;BME280;45734;53.648;9.566;2024-02-21T07:02:10;52875.88;;;-145.06;100.00
59859;BME280;45734;53.648;9.566;2024-02-21T07:07:10;52843.50;;;-145.06;100.00
59859;BME280;45734;53.648;9.566;2024-02-21T07:12:10;52772.63;;;-145.06;100.00
59859;BME280;45734;53.648;9.566;2024-02-21T07:17:11;52752.38;;;-145.06;100.00
59859;BME280;45734;53.648;9.566;2024-02-21T07:22:11;52715.94;;;-145.06;100.00
59859;BME280;45734;53.648;9.566;2024-02-21T07:27:14;52734.16;;;-145.06;100.00
59859;BME280;45734;53.648;9.566;2024-02-21T07:32:14;52709.88;;;-145.06;100.00
59859;BME280;45734;53.648;9.566;2024-02-21T07:37:15;52701.78;;;-145.06;100.00
59859;BME280;45734;53.648;9.566;2024-02-21T07:42:16;52691.66;;;-145.06;100.00
59859;BME280;45734;53.648;9.566;2024-02-21T07:47:16;52703.78;;;-145.06;100.00
59859;BME280;45734;53.648;9.566;2024-02-21T07:52:18;52726.06;;;-145.06;100.00
59859;BME280;45734;53.648;9.566;2024-02-21T07:57:19;52732.13;;;-145.06;100.00
59859;BME280;45734;53.648;9.566;2024-02-21T08:02:19;52734.16;;;-145.06;100.00
59859;BME280;45734;53.648;9.566;2024-02-21T08:07:19;52780.72;;;-145.06;100.00
59859;BME280;45734;53.648;9.566;2024-02-21T08:12:20;52760.47;;;-145.06;100.00
59859;BME280;45734;53.648;9.566;2024-02-21T08:17:20;52722.03;;;-145.06;100.00
59859;BME280;45734;53.648;9.566;2024-02-21T08:22:20;52715.94;;;-145.06;100.00
59859;BME280;45734;53.648;9.566;2024-02-21T08:27:20;52701.78;;;-145.06;100.00
59859;BME280;45734;53.648;9.566;2024-02-21T08:32:21;52679.50;;;-145.06;100.00
59859;BME280;45734;53.648;9.566;2024-02-21T08:37:21;52709.88;;;-145.06;100.00
59859;BME280;45734;53.648;9.566;2024-02-21T08:42:21;52689.63;;;-145.06;100.00
59859;BME280;45734;53.648;9.566;2024-02-21T08:47:21;52667.34;;;-145.06;100.00
59859;BME280;45734;53.648;9.566;2024-02-21T08:52:22;52600.53;;;-145.06;100.00
59859;BME280;45734;53.648;9.566;2024-02-21T08:57:22;52628.88;;;-145.06;100.00
59859;BME280;45734;53.648;9.566;2024-02-21T09:02:22;52570.19;;;-145.06;100.00
59859;BME280;45734;53.648;9.566;2024-02-21T09:07:23;52628.88;;;-145.06;100.00
59859;BME280;45734;53.648;9.566;2024-02-21T09:12:23;52626.88;;;-145.06;100.00
59859;BME280;45734;53.648;9.566;2024-02-21T09:17:24;52624.84;;;-145.06;100.00
59859;BME280;45734;53.648;9.566;2024-02-21T09:22:25;52628.88;;;-145.06;100.00
59859;BME280;45734;53.648;9.566;2024-02-21T09:27:25;52604.59;;;-145.06;100.00
59859;BME280;45734;53.648;9.566;2024-02-21T09:32:25;52610.66;;;-145.06;100.00
59859;BME280;45734;53.648;9.566;2024-02-21T09:37:26;52641.03;;;-145.06;100.00
59859;BME280;45734;53.648;9.566;2024-02-21T09:42:39;52584.34;;;-145.06;100.00
59859;BME280;45734;53.648;9.566;2024-02-21T09:47:50;52568.16;;;-145.06;100.00
59859;BME280;45734;53.648;9.566;2024-02-21T09:52:56;52608.66;;;-145.06;100.00
59859;BME280;45734;53.648;9.566;2024-02-21T09:57:59;52576.25;;;-145.06;100.00
59859;BME280;45734;53.648;9.566;2024-02-21T10:03:01;52547.91;;;-145.06;100.00
59859;BME280;45734;53.648;9.566;2024-02-21T10:08:02;52535.75;;;-145.06;100.00
59859;BME280;45734;53.648;9.566;2024-02-21T10:13:03;52572.19;;;-145.06;100.00
59859;BME280;45734;53.648;9.566;2024-02-21T10:18:03;52580.31;;;-145.06;100.00
59859;BME280;45734;53.648;9.566;2024-02-21T10:23:05;52523.63;;;-145.06;100.00
59859;BME280;45734;53.648;9.566;2024-02-21T10:28:12;52499.31;;;-145.06;100.00
59859;BME280;45734;53.648;9.566;2024-02-21T10:33:15;52519.56;;;-145.06;100.00
59859;BME280;45734;53.648;9.566;2024-02-21T10:38:16;52521.59;;;-145.06;100.00
59859;BME280;45734;53.648;9.566;2024-02-21T10:43:16;52560.06;;;-145.06;100.00
59859;BME280;45734;53.648;9.566;2024-02-21T10:48:23;52549.94;;;-145.06;100.00
59859;BME280;45734;53.648;9.566;2024-02-21T10:53:36;52549.94;;;-145.06;100.00
59859;BME280;45734;53.648;9.566;2024-02-21T10:58:42;52531.72;;;-145.06;100.00
59859;BME280;45734;53.648;9.566;2024-02-21T11:03:45;52539.81;;;-145.06;100.00
59859;BME280;45734;53.648;9.566;2024-02-21T11:08:48;52547.91;;;-145.06;100.00
59859;BME280;45734;53.648;9.566;2024-02-21T11:14:05;52556.00;;;-145.06;100.00
59859;BME280;45734;53.648;9.566;2024-02-21T11:19:18;52578.28;;;-145.06;100.00
59859;BME280;45734;53.648;9.566;2024-02-21T11:24:32;52566.13;;;-145.06;100.00
59859;BME280;45734;53.648;9.566;2024-02-21T11:29:39;52568.16;;;-145.06;100.00
59859;BME280;45734;53.648;9.566;2024-02-21T11:34:41;52533.75;;;-145.06;100.00
59859;BME280;45734;53.648;9.566;2024-02-21T11:39:53;52576.25;;;-145.06;100.00
59859;BME280;45734;53.648;9.566;2024-02-21T11:44:53;52562.09;;;-145.06;100.00
59859;BME280;45734;53.648;9.566;2024-02-21T11:49:57;52560.06;;;-145.06;100.00
59859;BME280;45734;53.648;9.566;2024-02-21T11:54:57;52624.84;;;-145.06;100.00
59859;BME280;45734;53.648;9.566;2024-02-21T12:00:15;52612.69;;;-145.06;100.00
59859;BME280;45734;53.648;9.566;2024-02-21T12:05:20;52604.59;;;-145.06;100.00
59859;BME280;45734;53.648;9.566;2024-02-21T12:10:20;52578.28;;;-145.06;100.00
59859;BME280;45734;53.648;9.566;2024-02-21T12:15:21;52626.88;;;-145.06;100.00
59859;BME280;45734;53.648;9.566;2024-02-21T12:20:21;52586.38;;;-145.06;100.00
59859;BME280;45734;53.648;9.566;2024-02-21T12:25:22;52618.75;;;-145.06;100.00
59859;BME280;45734;53.648;9.566;2024-02-21T12:30:23;52632.94;;;-145.06;100.00
59859;BME280;45734;53.648;9.566;2024-02-21T12:35:23;52608.66;;;-145.06;100.00
59859;BME280;45734;53.648;9.566;2024-02-21T12:40:23;52608.66;;;-145.06;100.00
59859;BME280;45734;53.648;9.566;2024-02-21T12:45:24;52626.88;;;-145.06;100.00
59859;BME280;45734;53.648;9.566;2024-02-21T12:50:24;52620.78;;;-145.06;100.00
59859;BME280;45734;53.648;9.566;2024-02-21T12:55:25;52643.06;;;-145.06;100.00
59859;BME280;45734;53.648;9.566;2024-02-21T13:00:26;52588.41;;;-145.06;100.00
59859;BME280;45734;53.648;9.566;2024-02-21T13:05:27;52578.28;;;-145.06;100.00
59859;BME280;45734;53.648;9.566;2024-02-21T13:10:28;52564.09;;;-145.06;100.00
59859;BME280;45734;53.648;9.566;2024-02-21T13:15:28;52553.97;;;-145.06;100.00
59859;BME280;45734;53.648;9.566;2024-02-21T13:20:28;52525.63;;;-145.06;100.00
59859;BME280;45734;53.648;9.566;2024-02-21T13:25:29;52564.09;;;-145.06;100.00
59859;BME280;45734;53.648;9.566;2024-02-21T13:30:29;52539.81;;;-145.06;100.00
59859;BME280;45734;53.648;9.566;2024-02-21T13:35:29;52517.53;;;-145.06;100.00
59859;BME280;45734;53.648;9.566;2024-02-21T13:40:30;52515.53;;;-145.06;100.00
59859;BME280;45734;53.648;9.566;2024-02-21T13:45:30;52527.66;;;-145.06;100.00
59859;BME280;45734;53.648;9.566;2024-02-21T13:50:30;52515.53;;;-145.06;100.00
59859;BME280;45734;53.648;9.566;2024-02-21T13:55:42;52495.28;;;-145.06;100.00
59859;BME280;45734;53.648;9.566;2024-02-21T14:00:43;52531.72;;;-145.06;100.00
59859;BME280;45734;53.648;9.566;2024-02-21T14:05:44;52543.84;;;-145.06;100.00
59859;BME280;45734;53.648;9.566;2024-02-21T14:10:44;52523.63;;;-145.06;100.00
59859;BME280;45734;53.648;9.566;2024-02-21T14:15:44;52543.84;;;-145.06;100.00
59859;BME280;45734;53.648;9.566;2024-02-21T14:20:46;52531.72;;;-145.06;100.00
59859;BME280;45734;53.648;9.566;2024-02-21T14:25:47;52531.72;;;-145.06;100.00
59859;BME280;45734;53.648;9.566;2024-02-21T14:30:47;52535.75;;;-145.06;100.00
59859;BME280;45734;53.648;9.566;2024-02-21T14:35:48;52558.03;;;-145.06;100.00
59859;BME280;45734;53.648;9.566;2024-02-21T14:40:48;52533.75;;;-145.06;100.00
59859;BME280;45734;53.648;9.566;2024-02-21T14:45:49;52586.38;;;-145.06;100.00
59859;BME280;45734;53.648;9.566;2024-02-21T14:50:49;52580.31;;;-145.06;100.00
59859;BME280;45734;53.648;9.566;2024-02-21T14:55:50;52624.84;;;-145.06;100.00
59859;BME280;45734;53.648;9.566;2024-02-21T15:00:50;52592.44;;;-145.06;100.00
59859;BME280;45734;53.648;9.566;2024-02-21T15:05:50;52637.00;;;-145.06;100.00
59859;BME280;45734;53.648;9.566;2024-02-21T15:10:51;52637.00;;;-145.06;100.00
59859;BME280;45734;53.648;9.566;2024-02-21T15:15:51;52659.25;;;-145.06;100.00
59859;BME280;45734;53.648;9.566;2024-02-21T15:20:52;52673.44;;;-145.06;100.00
59859;BME280;45734;53.648;9.566;2024-02-21T15:25:52;52707.84;;;-145.06;100.00
59859;BME280;45734;53.648;9.566;2024-02-21T15:30:52;52681.53;;;-145.06;100.00
59859;BME280;45734;53.648;9.566;2024-02-21T15:35:53;52677.47;;;-145.06;100.00
59859;BME280;45734;53.648;9.566;2024-02-21T15:40:53;52744.28;;;-145.06;100.00
59859;BME280;45734;53.648;9.566;2024-02-21T15:45:54;52746.31;;;-145.06;100.00
59859;BME280;45734;53.648;9.566;2024-02-21T15:50:54;52788.84;;;-145.06;100.00
59859;BME280;45734;53.648;9.566;2024-02-21T15:55:54;52768.59;;;-145.06;100.00
59859;BME280;45734;53.648;9.566;2024-02-21T16:00:55;52762.50;;;-145.06;100.00
59859;BME280;45734;53.648;9.566;2024-02-21T16:05:55;52807.06;;;-145.06;100.00
59859;BME280;45734;53.648;9.566;2024-02-21T16:10:56;52762.50;;;-145.06;100.00
59859;BME280;45734;53.648;9.566;2024-02-21T16:15:56;52790.84;;;-145.06;100.00
59859;BME280;45734;53.648;9.566;2024-02-21T16:20:56;52790.84;;;-145.06;100.00
59859;BME280;45734;53.648;9.566;2024-02-21T16:25:57;52784.78;;;-145.06;100.00
59859;BME280;45734;53.648;9.566;2024-02-21T16:30:57;52796.94;;;-145.06;100.00
59859;BME280;45734;53.648;9.566;2024-02-21T16:35:58;52805.03;;;-145.06;100.00
59859;BME280;45734;53.648;9.566;2024-02-21T16:40:59;52813.13;;;-145.06;100.00
59859;BME280;45734;53.648;9.566;2024-02-21T16:46:00;52819.19;;;-145.06;100.00
59859;BME280;45734;53.648;9.566;2024-02-21T16:51:00;52827.28;;;-145.06;100.00
59859;BME280;45734;53.648;9.566;2024-02-21T16:56:00;52863.75;;;-145.06;100.00
59859;BME280;45734;53.648;9.566;2024-02-21T17:01:05;52861.72;;;-145.06;100.00
59859;BME280;45734;53.648;9.566;2024-02-21T17:06:06;52853.63;;;-145.06;100.00
59859;BME280;45734;53.648;9.566;2024-02-21T17:11:06;52863.75;;;-145.06;100.00
59859;BME280;45734;53.648;9.566;2024-02-21T17:16:07;52851.59;;;-145.06;100.00
59859;BME280;45734;53.648;9.566;2024-02-21T17:21:09;52851.59;;;-145.06;100.00
59859;BME280;45734;53.648;9.566;2024-02-21T17:26:09;52863.75;;;-145.06;100.00
59859;BME280;45734;53.648;9.566;2024-02-21T17:31:10;52857.66;;;-145.06;100.00
59859;BME280;45734;53.648;9.566;2024-02-21T17:36:10;52884.00;;;-145.06;100.00
59859;BME280;45734;53.648;9.566;2024-02-21T17:41:10;52892.09;;;-145.06;100.00
59859;BME280;45734;53.648;9.566;2024-02-21T17:46:11;52867.78;;;-145.06;100.00
59859;BME280;45734;53.648;9.566;2024-02-21T17:51:11;52869.81;;;-145.06;100.00
59859;BME280;45734;53.648;9.566;2024-02-21T17:56:11;52861.72;;;-145.06;100.00
59859;BME280;45734;53.648;9.566;2024-02-21T18:01:12;52861.72;;;-145.06;100.00
59859;BME280;45734;53.648;9.566;2024-02-21T18:06:12;52865.75;;;-145.06;100.00
59859;BME280;45734;53.648;9.566;2024-02-21T18:11:13;52879.94;;;-145.06;100.00
59859;BME280;45734;53.648;9.566;2024-02-21T18:16:14;52877.91;;;-145.06;100.00
59859;BME280;45734;53.648;9.566;2024-02-21T18:21:15;52855.63;;;-145.06;100.00
59859;BME280;45734;53.648;9.566;2024-02-21T18:26:16;52898.16;;;-145.06;100.00
59859;BME280;45734;53.648;9.566;2024-02-21T18:31:16;52894.09;;;-145.06;100.00
59859;BME280;45734;53.648;9.566;2024-02-21T18:36:16;52877.91;;;-145.06;100.00
59859;BME280;45734;53.648;9.566;2024-02-21T18:41:17;52904.22;;;-145.06;100.00
59859;BME280;45734;53.648;9.566;2024-02-21T18:46:17;52853.63;;;-145.06;100.00
59859;BME280;45734;53.648;9.566;2024-02-21T18:51:17;52881.97;;;-145.06;100.00
59859;BME280;45734;53.648;9.566;2024-02-21T18:56:18;52900.19;;;-145.06;100.00
59859;BME280;45734;53.648;9.566;2024-02-21T19:01:18;52877.91;;;-145.06;100.00
59859;BME280;45734;53.648;9.566;2024-02-21T19:06:20;52888.03;;;-145.06;100.00
59859;BME280;45734;53.648;9.566;2024-02-21T19:11:21;52904.22;;;-145.06;100.00
59859;BME280;45734;53.648;9.566;2024-02-21T19:16:21;52894.09;;;-145.06;100.00
59859;BME280;45734;53.648;9.566;2024-02-21T19:21:21;52877.91;;;-145.06;100.00
59859;BME280;45734;53.648;9.566;2024-02-21T19:26:22;52894.09;;;-145.06;100.00
59859;BME280;45734;53.648;9.566;2024-02-21T19:31:22;52908.28;;;-145.06;100.00
59859;BME280;45734;53.648;9.566;2024-02-21T19:36:22;52888.03;;;-145.06;100.00
59859;BME280;45734;53.648;9.566;2024-02-21T19:41:23;52904.22;;;-145.06;100.00
59859;BME280;45734;53.648;9.566;2024-02-21T19:46:23;52902.22;;;-145.06;100.00
59859;BME280;45734;53.648;9.566;2024-02-21T19:51:23;52871.84;;;-145.06;100.00
59859;BME280;45734;53.648;9.566;2024-02-21T19:56:24;52892.09;;;-145.06;100.00
59859;BME280;45734;53.648;9.566;2024-02-21T20:01:24;52910.31;;;-145.06;100.00
59859;BME280;45734;53.648;9.566;2024-02-21T20:06:24;52916.38;;;-145.06;100.00
59859;BME280;45734;53.648;9.566;2024-02-21T20:11:25;52924.47;;;-145.06;100.00
59859;BME280;45734;53.648;9.566;2024-02-21T20:16:29;52936.63;;;-145.06;100.00
59859;BME280;45734;53.648;9.566;2024-02-21T20:21:29;52875.88;;;-145.06;100.00
59859;BME280;45734;53.648;9.566;2024-02-21T20:26:30;52888.03;;;-145.06;100.00
59859;BME280;45734;53.648;9.566;2024-02-21T20:31:30;52902.22;;;-145.06;100.00
59859;BME280;45734;53.648;9.566;2024-02-21T20:36:30;52912.34;;;-145.06;100.00
59859;BME280;45734;53.648;9.566;2024-02-21T20:41:31;52892.09;;;-145.06;100.00
59859;BME280;45734;53.648;9.566;2024-02-21T20:46:32;52902.22;;;-145.06;100.00
59859;BME280;45734;53.648;9.566;2024-02-21T20:51:32;52910.31;;;-145.06;100.00
59859;BME280;45734;53.648;9.566;2024-02-21T20:56:33;52873.88;;;-145.06;100.00
59859;BME280;45734;53.648;9.566;2024-02-21T21:01:33;52890.06;;;-145.06;100.00
59859;BME280;45734;53.648;9.566;2024-02-21T21:06:33;52833.38;;;-145.06;100.00
59859;BME280;45734;53.648;9.566;2024-02-21T21:11:35;52829.31;;;-145.06;100.00
59859;BME280;45734;53.648;9.566;2024-02-21T21:16:37;52813.13;;;-145.06;100.00
59859;BME280;45734;53.648;9.566;2024-02-21T21:21:37;52837.41;;;-145.06;100.00
59859;BME280;45734;53.648;9.566;2024-02-21T21:26:37;52823.25;;;-145.06;100.00
59859;BME280;45734;53.648;9.566;2024-02-21T21:31:37;52798.94;;;-145.06;100.00
59859;BME280;45734;53.648;9.566;2024-02-21T21:36:38;52796.94;;;-145.06;100.00
59859;BME280;45734;53.648;9.566;2024-02-21T21:41:38;52796.94;;;-145.06;100.00
59859;BME280;45734;53.648;9.566;2024-02-21T21:46:38;52790.84;;;-145.06;100.00
59859;BME280;45734;53.648;9.566;2024-02-21T21:51:41;52809.06;;;-145.06;100.00
59859;BME280;45734;53.648;9.566;2024-02-21T21:56:41;52786.81;;;-145.06;100.00
59859;BME280;45734;53.648;9.566;2024-02-21T22:01:41;52794.91;;;-145.06;100.00
59859;BME280;45734;53.648;9.566;2024-02-21T22:06:41;52807.06;;;-145.06;100.00
59859;BME280;45734;53.648;9.566;2024-02-21T22:11:42;52811.09;;;-145.06;100.00
59859;BME280;45734;53.648;9.566;2024-02-21T22:16:42;52794.91;;;-145.06;100.00
59859;BME280;45734;53.648;9.566;2024-02-21T22:21:43;52809.06;;;-145.06;100.00
59859;BME280;45734;53.648;9.566;2024-02-21T22:26:44;52807.06;;;-145.06;100.00
59859;BME280;45734;53.648;9.566;2024-02-21T22:31:44;52796.94;;;-145.06;100.00
59859;BME280;45734;53.648;9.566;2024-02-21T22:36:45;52813.13;;;-145.06;100.00
59859;BME280;45734;53.648;9.566;2024-02-21T22:41:46;52815.16;;;-145.06;100.00
59859;BME280;45734;53.648;9.566;2024-02-21T22:46:46;52813.13;;;-145.06;100.00
59859;BME280;45734;53.648;9.566;2024-02-21T22:51:46;52825.28;;;-145.06;100.00
59859;BME280;45734;53.648;9.566;2024-02-21T22:56:47;52823.25;;;-145.06;100.00
59859;BME280;45734;53.648;9.566;2024-02-21T23:01:47;52766.56;;;-145.06;100.00
59859;BME280;45734;53.648;9.566;2024-02-21T23:06:50;52778.72;;;-145.06;100.00
59859;BME280;45734;53.648;9.566;2024-02-21T23:11:50;52778.72;;;-145.06;100.00
59859;BME280;45734;53.648;9.566;2024-02-21T23:16:50;52796.94;;;-145.06;100.00
59859;BME280;45734;53.648;9.566;2024-02-21T23:21:50;52784.78;;;-145.06;100.00
59859;BME280;45734;53.648;9.566;2024-02-21T23:26:51;52766.56;;;-145.06;100.00
59859;BME280;45734;53.648;9.566;2024-02-21T23:31:51;52760.47;;;-145.06;100.00
59859;BME280;45734;53.648;9.566;2024-02-21T23:36:51;52760.47;;;-145.06;100.00
59859;BME280;45734;53.648;9.566;2024-02-21T23:41:52;52764.53;;;-145.06;100.00
59859;BME280;45734;53.648;9.566;2024-02-21T23:46:52;52766.56;;;-145.06;100.00
59859;BME280;45734;53.648;9.566;2024-02-21T23:51:53;52744.28;;;-145.06;100.00
59859;BME280;45734;53.648;9.566;2024-02-21T23:56:55;52782.75;;;-145.06;100.00
